Time;durP1;ratioP1;P1;durP2;ratioP2;P2;SDS_P1;SDS_P2;PMS_P1;PMS_P2;Temp;Humidity;BMP_temperature;BMP_pressure;BME280_temperature;BME280_humidity;BME280_pressure;Samples;Min_cycle;Max_cycle;Signal;HPM_P1;HPM_P2
2023/08/26 00:01:11;;;;;;;37.58;24.63;;;;;;;;;;5067510;28;20028;-61
2023/08/26 00:03:36;;;;;;;39.20;27.13;;;;;;;;;;5069483;28;20352;-62
2023/08/26 00:06:02;;;;;;;38.33;24.73;;;;;;;;;;5067947;28;20062;-62
2023/08/26 00:08:27;;;;;;;39.22;27.60;;;;;;;;;;5068719;28;20379;-62
2023/08/26 00:10:52;;;;;;;42.07;27.43;;;;;;;;;;5068328;28;20106;-62
2023/08/26 00:13:17;;;;;;;42.30;26.23;;;;;;;;;;5069745;28;20020;-65
2023/08/26 00:15:42;;;;;;;40.07;26.13;;;;;;;;;;5068194;28;20094;-61
2023/08/26 00:18:08;;;;;;;33.27;25.63;;;;;;;;;;5073053;28;20024;-61
2023/08/26 00:20:34;;;;;;;38.65;25.27;;;;;;;;;;5071183;28;20030;-61
2023/08/26 00:22:59;;;;;;;37.83;27.25;;;;;;;;;;5072640;28;20021;-61
2023/08/26 00:25:24;;;;;;;44.42;26.75;;;;;;;;;;5071016;28;20437;-60
2023/08/26 00:27:49;;;;;;;38.83;26.13;;;;;;;;;;5073226;28;20023;-61
2023/08/26 00:30:14;;;;;;;40.03;26.67;;;;;;;;;;5073027;28;20078;-61
2023/08/26 00:32:39;;;;;;;37.57;24.63;;;;;;;;;;5071099;28;21299;-62
2023/08/26 00:35:05;;;;;;;43.17;26.05;;;;;;;;;;5072475;28;20021;-62
2023/08/26 00:37:30;;;;;;;37.40;26.13;;;;;;;;;;5068956;28;20054;-64
2023/08/26 00:39:55;;;;;;;36.20;26.37;;;;;;;;;;5072659;28;20031;-62
2023/08/26 00:42:20;;;;;;;33.47;27.40;;;;;;;;;;5070884;28;20451;-62
2023/08/26 00:44:45;;;;;;;44.85;27.20;;;;;;;;;;5072323;28;20057;-62
2023/08/26 00:47:11;;;;;;;40.00;24.43;;;;;;;;;;5070826;28;20029;-62
2023/08/26 00:49:36;;;;;;;33.27;24.80;;;;;;;;;;5072393;28;20021;-62
2023/08/26 00:52:01;;;;;;;32.45;22.52;;;;;;;;;;5070602;28;20504;-62
2023/08/26 00:54:27;;;;;;;34.88;22.30;;;;;;;;;;5072194;28;20020;-63
2023/08/26 00:56:53;;;;;;;26.90;20.52;;;;;;;;;;5070653;28;20039;-62
2023/08/26 00:59:18;;;;;;;28.90;21.90;;;;;;;;;;5071746;28;20416;-62
2023/08/26 01:01:43;;;;;;;31.83;23.38;;;;;;;;;;5069415;28;20131;-61
2023/08/26 01:04:09;;;;;;;27.77;20.65;;;;;;;;;;5072652;28;20017;-61
2023/08/26 01:06:34;;;;;;;28.42;18.73;;;;;;;;;;5056671;28;20451;-61
2023/08/26 01:08:59;;;;;;;30.85;20.13;;;;;;;;;;5052357;28;20020;-61
2023/08/26 01:11:29;;;;;;;33.63;20.90;;;;;;;;;;5050440;28;20033;-62
2023/08/26 01:14:02;;;;;;;35.58;19.00;;;;;;;;;;5067559;28;20029;-61
2023/08/26 01:16:29;;;;;;;27.60;18.13;;;;;;;;;;5070625;28;20070;-61
2023/08/26 01:18:55;;;;;;;26.80;20.52;;;;;;;;;;5070738;28;20055;-61
2023/08/26 01:21:23;;;;;;;29.25;17.80;;;;;;;;;;5069732;28;20040;-61
2023/08/26 01:23:48;;;;;;;27.50;18.83;;;;;;;;;;5068616;28;20029;-62
2023/08/26 01:26:15;;;;;;;30.20;18.50;;;;;;;;;;5051904;28;20051;-62
2023/08/26 01:28:40;;;;;;;21.30;17.70;;;;;;;;;;5070324;28;20031;-62
2023/08/26 01:31:08;;;;;;;19.53;16.83;;;;;;;;;;5070618;28;20040;-61
2023/08/26 01:33:36;;;;;;;23.40;16.85;;;;;;;;;;5055683;28;20556;-61
2023/08/26 01:36:04;;;;;;;26.20;19.05;;;;;;;;;;5058552;28;20033;-61
2023/08/26 01:38:29;;;;;;;29.88;18.05;;;;;;;;;;5071401;28;20048;-62
2023/08/26 01:40:56;;;;;;;29.75;19.52;;;;;;;;;;5070118;28;20403;-61
2023/08/26 01:43:22;;;;;;;27.13;18.20;;;;;;;;;;5057564;28;20025;-62
2023/08/26 01:45:47;;;;;;;30.40;20.52;;;;;;;;;;5049760;28;20033;-62
2023/08/26 01:48:12;;;;;;;26.33;19.70;;;;;;;;;;5051545;28;20166;-62
2023/08/26 01:50:37;;;;;;;24.70;17.50;;;;;;;;;;5049562;28;20017;-61
2023/08/26 01:53:03;;;;;;;22.65;19.70;;;;;;;;;;5051352;28;20017;-62
2023/08/26 01:55:28;;;;;;;22.00;18.75;;;;;;;;;;5049054;28;20505;-61
2023/08/26 01:57:53;;;;;;;26.52;18.25;;;;;;;;;;5070627;28;20043;-62
2023/08/26 02:00:18;;;;;;;26.80;17.92;;;;;;;;;;5070943;28;20162;-62
2023/08/26 02:02:43;;;;;;;24.83;18.40;;;;;;;;;;5069620;28;20043;-62
2023/08/26 02:05:08;;;;;;;29.93;18.60;;;;;;;;;;5070883;28;20419;-63
2023/08/26 02:07:34;;;;;;;20.73;16.77;;;;;;;;;;5069207;28;20105;-63
2023/08/26 02:09:59;;;;;;;24.60;17.75;;;;;;;;;;5070949;28;20421;-63
2023/08/26 02:12:24;;;;;;;23.27;17.03;;;;;;;;;;5069241;28;20028;-63
2023/08/26 02:14:49;;;;;;;21.20;17.30;;;;;;;;;;5070182;28;20042;-62
2023/08/26 02:17:14;;;;;;;26.13;18.13;;;;;;;;;;5069742;28;20032;-63
2023/08/26 02:19:39;;;;;;;33.42;19.77;;;;;;;;;;5070499;28;20546;-63
2023/08/26 02:22:04;;;;;;;27.98;19.50;;;;;;;;;;5067519;28;20064;-63
2023/08/26 02:24:31;;;;;;;43.00;20.13;;;;;;;;;;5070388;28;20024;-62
2023/08/26 02:26:56;;;;;;;27.48;18.02;;;;;;;;;;5069539;28;20063;-63
2023/08/26 02:29:21;;;;;;;27.27;19.40;;;;;;;;;;5070306;28;20424;-63
2023/08/26 02:31:46;;;;;;;26.80;17.30;;;;;;;;;;5054014;28;20041;-62
2023/08/26 02:34:11;;;;;;;30.83;22.67;;;;;;;;;;5050658;28;20417;-63
2023/08/26 02:36:36;;;;;;;31.17;19.83;;;;;;;;;;5058618;28;21891;-63
2023/08/26 02:39:02;;;;;;;33.17;20.08;;;;;;;;;;5059318;28;20816;-63
2023/08/26 02:41:27;;;;;;;30.63;22.03;;;;;;;;;;5057610;28;20056;-62
2023/08/26 02:43:52;;;;;;;30.10;20.63;;;;;;;;;;5070281;28;20491;-62
2023/08/26 02:46:17;;;;;;;45.30;23.27;;;;;;;;;;5062614;28;20490;-62
2023/08/26 02:48:42;;;;;;;31.33;21.20;;;;;;;;;;5068940;28;20024;-62
2023/08/26 02:51:07;;;;;;;39.60;23.93;;;;;;;;;;5068780;28;20039;-62
2023/08/26 02:53:33;;;;;;;35.97;23.67;;;;;;;;;;5070142;28;20105;-62
2023/08/26 02:55:58;;;;;;;42.55;27.75;;;;;;;;;;5069100;28;20848;-62
2023/08/26 02:58:23;;;;;;;42.05;25.00;;;;;;;;;;5069291;28;20028;-62
2023/08/26 03:00:48;;;;;;;38.20;24.63;;;;;;;;;;5069144;28;20444;-62
2023/08/26 03:03:14;;;;;;;45.75;28.23;;;;;;;;;;5070496;28;20106;-62
2023/08/26 03:05:39;;;;;;;43.17;27.77;;;;;;;;;;5066930;28;20025;-61
2023/08/26 03:08:05;;;;;;;51.97;34.08;;;;;;;;;;5051461;28;20082;-62
2023/08/26 03:10:30;;;;;;;71.07;40.43;;;;;;;;;;5049819;28;20017;-62
2023/08/26 03:12:56;;;;;;;69.53;39.75;;;;;;;;;;5069541;28;20434;-62
2023/08/26 03:15:21;;;;;;;83.67;49.07;;;;;;;;;;5070273;28;20096;-62
2023/08/26 03:17:46;;;;;;;82.57;44.93;;;;;;;;;;5060017;28;20056;-62
2023/08/26 03:20:12;;;;;;;82.07;45.53;;;;;;;;;;5049830;28;20487;-61
2023/08/26 03:22:37;;;;;;;89.85;50.70;;;;;;;;;;5066955;28;20823;-62
2023/08/26 03:25:02;;;;;;;77.32;43.03;;;;;;;;;;5070305;28;20024;-62
2023/08/26 03:27:28;;;;;;;47.33;33.38;;;;;;;;;;5067474;28;20036;-61
2023/08/26 03:29:53;;;;;;;46.17;31.87;;;;;;;;;;5070299;28;20483;-62
2023/08/26 03:32:18;;;;;;;48.40;29.20;;;;;;;;;;5068256;28;20033;-62
2023/08/26 03:34:43;;;;;;;36.05;25.83;;;;;;;;;;5069213;28;20210;-62
2023/08/26 03:37:08;;;;;;;32.30;22.38;;;;;;;;;;5068701;28;20039;-62
2023/08/26 03:39:34;;;;;;;44.22;25.98;;;;;;;;;;5069798;28;20041;-62
2023/08/26 03:41:59;;;;;;;31.17;21.92;;;;;;;;;;5066733;28;20036;-62
2023/08/26 03:44:24;;;;;;;31.80;20.25;;;;;;;;;;5069772;28;20464;-62
2023/08/26 03:46:49;;;;;;;39.80;20.93;;;;;;;;;;5068021;28;20162;-62
2023/08/26 03:49:14;;;;;;;33.85;23.20;;;;;;;;;;5069819;28;20471;-62
2023/08/26 03:51:39;;;;;;;34.10;20.83;;;;;;;;;;5072301;28;20144;-62
2023/08/26 03:54:05;;;;;;;33.60;21.52;;;;;;;;;;5073452;28;20949;-62
2023/08/26 03:56:30;;;;;;;40.90;26.15;;;;;;;;;;5071632;28;20040;-62
2023/08/26 03:58:57;;;;;;;33.10;21.50;;;;;;;;;;5073746;28;20387;-62
2023/08/26 04:01:22;;;;;;;33.28;23.30;;;;;;;;;;5071615;28;20094;-62
2023/08/26 04:03:50;;;;;;;29.33;20.25;;;;;;;;;;5073032;28;20360;-62
2023/08/26 04:06:15;;;;;;;36.03;22.00;;;;;;;;;;5071485;28;20052;-62
2023/08/26 04:08:41;;;;;;;26.85;20.15;;;;;;;;;;5073312;28;20052;-62
2023/08/26 04:11:06;;;;;;;45.63;24.33;;;;;;;;;;5071817;28;20449;-62
2023/08/26 04:13:31;;;;;;;38.65;24.00;;;;;;;;;;5073284;28;20032;-62
2023/08/26 04:15:56;;;;;;;32.38;23.83;;;;;;;;;;5071937;28;20047;-62
2023/08/26 04:18:22;;;;;;;36.05;24.73;;;;;;;;;;5073052;28;20617;-62
2023/08/26 04:20:47;;;;;;;33.47;25.80;;;;;;;;;;5071277;28;20051;-62
2023/08/26 04:23:12;;;;;;;37.97;26.10;;;;;;;;;;5073106;28;20027;-62
2023/08/26 04:25:38;;;;;;;37.50;24.23;;;;;;;;;;5053369;28;20507;-61
2023/08/26 04:28:03;;;;;;;40.58;26.23;;;;;;;;;;5053099;28;20035;-62
2023/08/26 04:30:28;;;;;;;34.90;24.08;;;;;;;;;;5054215;28;20070;-61
2023/08/26 04:32:53;;;;;;;32.42;22.42;;;;;;;;;;5073223;28;20019;-62
2023/08/26 04:35:18;;;;;;;29.45;22.02;;;;;;;;;;5063677;28;20021;-62
2023/08/26 04:37:44;;;;;;;39.03;22.50;;;;;;;;;;5051401;28;20565;-62
2023/08/26 04:40:18;;;;;;;25.70;19.77;;;;;;;;;;5052860;28;20954;-62
2023/08/26 04:42:44;;;;;;;31.00;17.83;;;;;;;;;;5049825;28;20479;-62
2023/08/26 04:45:09;;;;;;;16.38;13.95;;;;;;;;;;5052543;28;20024;-61
2023/08/26 04:47:35;;;;;;;23.13;15.20;;;;;;;;;;5069239;28;20036;-61
2023/08/26 04:50:00;;;;;;;25.30;14.80;;;;;;;;;;5072432;28;20013;-62
2023/08/26 04:52:26;;;;;;;30.17;15.32;;;;;;;;;;5070891;28;20037;-62
2023/08/26 04:54:51;;;;;;;20.38;12.32;;;;;;;;;;5072570;28;20024;-63
2023/08/26 04:57:17;;;;;;;22.07;13.70;;;;;;;;;;5070501;28;20033;-62
2023/08/26 04:59:42;;;;;;;15.88;11.93;;;;;;;;;;5071878;28;20459;-62
2023/08/26 05:02:07;;;;;;;21.60;13.35;;;;;;;;;;5069581;28;20044;-63
2023/08/26 05:04:33;;;;;;;19.33;12.27;;;;;;;;;;5071281;28;20493;-62
2023/08/26 05:06:58;;;;;;;24.90;13.07;;;;;;;;;;5070603;28;20041;-63
2023/08/26 05:09:23;;;;;;;20.63;13.00;;;;;;;;;;5071938;28;20019;-63
2023/08/26 05:11:48;;;;;;;14.67;11.60;;;;;;;;;;5070517;28;20036;-62
2023/08/26 05:14:13;;;;;;;21.13;12.68;;;;;;;;;;5066475;28;20829;-62
2023/08/26 05:16:39;;;;;;;24.77;12.90;;;;;;;;;;5050545;28;20044;-62
2023/08/26 05:19:04;;;;;;;24.13;12.45;;;;;;;;;;5051807;28;20416;-62
2023/08/26 05:21:30;;;;;;;16.63;12.83;;;;;;;;;;5050190;28;20076;-62
2023/08/26 05:23:55;;;;;;;14.40;11.05;;;;;;;;;;5052128;28;20494;-61
2023/08/26 05:26:20;;;;;;;22.92;11.63;;;;;;;;;;5050066;28;20025;-63
2023/08/26 05:28:45;;;;;;;14.13;11.20;;;;;;;;;;5050470;28;20028;-63
2023/08/26 05:31:10;;;;;;;16.50;10.57;;;;;;;;;;5057161;28;20528;-63
2023/08/26 05:33:36;;;;;;;18.15;10.48;;;;;;;;;;5070979;28;20682;-63
2023/08/26 05:36:01;;;;;;;12.23;9.07;;;;;;;;;;5070233;28;20036;-62
2023/08/26 05:38:26;;;;;;;14.27;9.83;;;;;;;;;;5070700;28;20522;-62
2023/08/26 05:40:52;;;;;;;23.85;11.52;;;;;;;;;;5068888;28;20465;-62
2023/08/26 05:43:17;;;;;;;16.50;9.27;;;;;;;;;;5071456;28;20364;-63
2023/08/26 05:45:42;;;;;;;10.10;8.93;;;;;;;;;;5070192;28;20017;-63
2023/08/26 05:48:07;;;;;;;14.47;9.57;;;;;;;;;;5052570;28;20514;-63
2023/08/26 05:50:32;;;;;;;18.23;10.68;;;;;;;;;;5051001;28;20021;-62
2023/08/26 05:52:57;;;;;;;14.88;8.95;;;;;;;;;;5071505;28;20555;-65
2023/08/26 05:55:23;;;;;;;16.95;9.52;;;;;;;;;;5070535;28;20023;-64
2023/08/26 05:57:48;;;;;;;12.60;7.97;;;;;;;;;;5069934;28;20043;-63
2023/08/26 06:00:13;;;;;;;15.03;8.43;;;;;;;;;;5071450;28;20426;-63
2023/08/26 06:02:38;;;;;;;14.85;8.00;;;;;;;;;;5068255;28;21036;-64
2023/08/26 06:05:05;;;;;;;9.02;7.35;;;;;;;;;;5070271;28;20102;-61
2023/08/26 06:07:30;;;;;;;16.42;9.23;;;;;;;;;;5068723;28;20598;-61
2023/08/26 06:09:55;;;;;;;27.70;9.10;;;;;;;;;;5070529;28;20024;-58
2023/08/26 06:12:20;;;;;;;11.23;8.10;;;;;;;;;;5069273;28;20036;-58
2023/08/26 06:14:46;;;;;;;13.63;7.67;;;;;;;;;;5070982;28;20439;-58
2023/08/26 06:17:11;;;;;;;10.38;9.15;;;;;;;;;;5069098;28;20806;-58
2023/08/26 06:19:36;;;;;;;18.17;7.07;;;;;;;;;;5070716;28;20027;-58
2023/08/26 06:22:01;;;;;;;11.97;6.80;;;;;;;;;;5068974;28;20138;-58
2023/08/26 06:24:27;;;;;;;12.13;7.57;;;;;;;;;;5068683;28;20146;-58
2023/08/26 06:26:52;;;;;;;21.42;8.52;;;;;;;;;;5049550;28;20109;-58
2023/08/26 06:29:19;;;;;;;11.33;7.37;;;;;;;;;;5050904;28;20025;-59
2023/08/26 06:31:44;;;;;;;12.25;7.40;;;;;;;;;;5048912;28;20463;-58
2023/08/26 06:34:09;;;;;;;14.47;8.23;;;;;;;;;;5061752;28;20035;-58
2023/08/26 06:36:34;;;;;;;7.05;6.25;;;;;;;;;;5050614;28;20041;-58
2023/08/26 06:38:59;;;;;;;10.90;6.70;;;;;;;;;;5050220;28;20053;-58
2023/08/26 06:41:25;;;;;;;14.45;5.93;;;;;;;;;;5053727;28;20045;-58
2023/08/26 06:43:51;;;;;;;20.35;6.20;;;;;;;;;;5060453;28;20052;-58
2023/08/26 06:46:16;;;;;;;11.68;6.60;;;;;;;;;;5055989;28;20035;-58
2023/08/26 06:48:41;;;;;;;15.60;7.07;;;;;;;;;;5069774;28;20710;-58
2023/08/26 06:51:07;;;;;;;9.70;6.85;;;;;;;;;;5069171;28;20043;-62
2023/08/26 06:53:32;;;;;;;6.30;5.70;;;;;;;;;;5070017;28;20103;-58
2023/08/26 06:55:57;;;;;;;12.85;6.43;;;;;;;;;;5066132;28;20097;-58
2023/08/26 06:58:23;;;;;;;8.57;5.88;;;;;;;;;;5050253;28;20680;-58
2023/08/26 07:00:49;;;;;;;12.25;6.20;;;;;;;;;;5055775;28;20605;-58
2023/08/26 07:03:14;;;;;;;8.95;6.78;;;;;;;;;;5069926;28;20103;-58
2023/08/26 07:05:43;;;;;;;7.82;6.45;;;;;;;;;;5067145;28;20112;-58
2023/08/26 07:08:08;;;;;;;8.35;6.05;;;;;;;;;;5070578;28;20020;-58
2023/08/26 07:10:33;;;;;;;12.30;5.63;;;;;;;;;;5068892;28;20069;-58
2023/08/26 07:12:59;;;;;;;9.80;5.95;;;;;;;;;;5070238;28;20009;-58
2023/08/26 07:15:24;;;;;;;12.10;7.47;;;;;;;;;;5070153;28;20086;-58
2023/08/26 07:17:49;;;;;;;8.77;5.83;;;;;;;;;;5059500;28;20045;-61
2023/08/26 07:20:14;;;;;;;10.93;5.30;;;;;;;;;;5050368;28;20070;-58
2023/08/26 07:22:39;;;;;;;9.10;5.43;;;;;;;;;;5048250;28;20044;-58
2023/08/26 07:25:05;;;;;;;11.85;5.45;;;;;;;;;;5049954;28;20447;-59
2023/08/26 07:27:30;;;;;;;10.88;5.65;;;;;;;;;;5047574;28;20521;-58
2023/08/26 07:29:55;;;;;;;9.13;4.88;;;;;;;;;;5054108;28;20021;-58
2023/08/26 07:32:20;;;;;;;8.35;4.30;;;;;;;;;;5052367;28;20025;-58
2023/08/26 07:34:45;;;;;;;5.70;4.57;;;;;;;;;;5055492;28;20548;-58
2023/08/26 07:37:11;;;;;;;12.33;4.27;;;;;;;;;;5071101;28;20033;-60
2023/08/26 07:39:37;;;;;;;6.65;5.20;;;;;;;;;;5073521;28;20437;-74
2023/08/26 07:42:03;;;;;;;11.90;5.93;;;;;;;;;;5055028;28;20127;-59
2023/08/26 07:44:28;;;;;;;6.13;3.83;;;;;;;;;;5065678;28;20052;-59
2023/08/26 07:46:53;;;;;;;8.73;4.80;;;;;;;;;;5071230;28;20040;-59
2023/08/26 07:49:18;;;;;;;7.28;4.85;;;;;;;;;;5056256;28;20025;-59
2023/08/26 07:51:43;;;;;;;12.13;5.13;;;;;;;;;;5052719;28;20103;-59
2023/08/26 07:54:09;;;;;;;8.87;5.47;;;;;;;;;;5062165;28;20055;-59
2023/08/26 07:56:34;;;;;;;9.07;5.45;;;;;;;;;;5062858;28;20415;-60
2023/08/26 07:58:59;;;;;;;10.60;5.87;;;;;;;;;;5055799;28;20024;-59
2023/08/26 08:01:24;;;;;;;7.77;6.03;;;;;;;;;;5058340;28;20036;-60
2023/08/26 08:03:49;;;;;;;5.63;4.40;;;;;;;;;;5073539;28;20438;-60
2023/08/26 08:06:14;;;;;;;6.65;4.45;;;;;;;;;;5071392;28;20449;-58
2023/08/26 08:08:39;;;;;;;7.33;4.40;;;;;;;;;;5072553;28;20032;-59
2023/08/26 08:11:05;;;;;;;21.15;6.53;;;;;;;;;;5071380;28;20036;-60
2023/08/26 08:13:30;;;;;;;11.40;4.17;;;;;;;;;;5067128;28;20458;-59
2023/08/26 08:15:55;;;;;;;9.20;4.05;;;;;;;;;;5055917;28;20040;-59
2023/08/26 08:18:20;;;;;;;8.27;4.10;;;;;;;;;;5073028;28;20027;-59
2023/08/26 08:20:46;;;;;;;7.22;5.60;;;;;;;;;;5071658;28;20036;-61
2023/08/26 08:23:11;;;;;;;9.33;5.13;;;;;;;;;;5072665;28;20021;-61
2023/08/26 08:25:36;;;;;;;13.25;5.25;;;;;;;;;;5071556;28;20111;-61
2023/08/26 08:28:02;;;;;;;14.38;5.88;;;;;;;;;;5073255;28;20016;-61
2023/08/26 08:30:27;;;;;;;9.50;5.53;;;;;;;;;;5058910;28;20024;-60
2023/08/26 08:32:52;;;;;;;9.10;4.60;;;;;;;;;;5065629;28;20498;-60
2023/08/26 08:35:17;;;;;;;8.10;5.07;;;;;;;;;;5052303;28;20058;-61
2023/08/26 08:37:43;;;;;;;17.50;5.97;;;;;;;;;;5056725;28;20518;-60
2023/08/26 08:40:08;;;;;;;4.47;3.50;;;;;;;;;;5069419;28;20017;-60
2023/08/26 08:42:36;;;;;;;4.07;3.63;;;;;;;;;;5047715;28;20452;-60
2023/08/26 08:45:05;;;;;;;5.93;4.18;;;;;;;;;;5050058;28;20539;-60
2023/08/26 08:47:30;;;;;;;6.90;3.67;;;;;;;;;;5067724;28;20052;-61
2023/08/26 08:49:57;;;;;;;6.00;3.85;;;;;;;;;;5066145;28;20009;-60
2023/08/26 08:52:22;;;;;;;8.50;3.30;;;;;;;;;;5066341;28;20111;-60
2023/08/26 08:54:47;;;;;;;14.65;3.67;;;;;;;;;;5072590;28;20235;-61
2023/08/26 08:57:15;;;;;;;4.30;3.15;;;;;;;;;;5071100;28;20040;-60
2023/08/26 08:59:40;;;;;;;6.35;3.40;;;;;;;;;;5070825;28;20099;-60
2023/08/26 09:02:06;;;;;;;9.73;3.90;;;;;;;;;;5070800;28;20167;-61
2023/08/26 09:04:31;;;;;;;6.40;3.85;;;;;;;;;;5072598;28;20103;-61
2023/08/26 09:06:57;;;;;;;7.07;3.97;;;;;;;;;;5070670;28;20036;-61
2023/08/26 09:09:22;;;;;;;9.80;3.60;;;;;;;;;;5053348;28;20027;-60
2023/08/26 09:11:47;;;;;;;10.10;4.93;;;;;;;;;;5070932;28;20454;-60
2023/08/26 09:14:13;;;;;;;7.03;2.90;;;;;;;;;;5072304;28;20024;-61
2023/08/26 09:16:39;;;;;;;8.82;3.05;;;;;;;;;;5070349;28;20048;-60
2023/08/26 09:19:08;;;;;;;5.65;3.80;;;;;;;;;;5072063;28;20035;-61
2023/08/26 09:21:33;;;;;;;4.93;3.42;;;;;;;;;;5070264;28;20040;-61
2023/08/26 09:23:59;;;;;;;12.83;3.10;;;;;;;;;;5071996;28;20100;-61
2023/08/26 09:26:24;;;;;;;5.43;2.75;;;;;;;;;;5069033;28;20032;-60
2023/08/26 09:28:50;;;;;;;11.90;4.13;;;;;;;;;;5072090;28;20078;-61
2023/08/26 09:31:16;;;;;;;5.97;3.35;;;;;;;;;;5068815;28;20028;-61
2023/08/26 09:33:41;;;;;;;15.93;5.47;;;;;;;;;;5071534;28;20035;-60
2023/08/26 09:36:06;;;;;;;6.37;2.50;;;;;;;;;;5057898;28;20124;-61
2023/08/26 09:38:43;;;;;;;7.32;2.45;;;;;;;;;;5051096;28;20049;-61
2023/08/26 09:41:09;;;;;;;4.82;2.63;;;;;;;;;;5066211;28;20044;-60
2023/08/26 09:43:35;;;;;;;5.20;3.37;;;;;;;;;;5071504;28;20044;-60
2023/08/26 09:46:00;;;;;;;5.32;2.45;;;;;;;;;;5070176;28;20033;-60
2023/08/26 09:48:25;;;;;;;8.50;2.53;;;;;;;;;;5071205;28;20025;-61
2023/08/26 09:50:50;;;;;;;14.13;3.20;;;;;;;;;;5051804;28;20487;-61
2023/08/26 09:53:46;;;;;;;3.45;2.30;;;;;;;;;;5051319;28;20071;-60
2023/08/26 09:56:11;;;;;;;2.42;1.63;;;;;;;;;;5044659;28;20377;-61
2023/08/26 09:58:36;;;;;;;5.03;1.87;;;;;;;;;;5051069;28;20031;-61
2023/08/26 10:01:01;;;;;;;8.40;2.80;;;;;;;;;;5066926;28;20150;-60
2023/08/26 10:03:27;;;;;;;4.28;2.05;;;;;;;;;;5059475;28;20387;-61
2023/08/26 10:05:53;;;;;;;4.85;2.65;;;;;;;;;;5050148;28;20056;-61
2023/08/26 10:08:20;;;;;;;5.85;2.33;;;;;;;;;;5050554;28;20028;-60
2023/08/26 10:10:55;;;;;;;5.55;1.85;;;;;;;;;;5063851;28;20090;-61
2023/08/26 10:13:22;;;;;;;5.18;2.80;;;;;;;;;;5069575;28;20017;-61
2023/08/26 10:15:50;;;;;;;5.55;2.45;;;;;;;;;;5052753;28;20040;-60
2023/08/26 10:18:15;;;;;;;;;;;;;;;;;;5051726;28;20020;-60
2023/08/26 10:20:40;;;;;;;2.83;1.58;;;;;;;;;;5063779;28;19912;-61
2023/08/26 10:23:06;;;;;;;7.47;2.92;;;;;;;;;;5069941;28;20027;-61
2023/08/26 10:25:32;;;;;;;3.47;1.77;;;;;;;;;;5069002;28;20027;-60
2023/08/26 10:27:58;;;;;;;3.47;1.83;;;;;;;;;;5070826;28;20437;-60
2023/08/26 10:30:23;;;;;;;3.15;1.50;;;;;;;;;;5041685;28;20075;-60
2023/08/26 10:32:57;;;;;;;5.05;1.52;;;;;;;;;;5048542;28;20037;-60
2023/08/26 10:35:24;;;;;;;4.88;1.70;;;;;;;;;;5050243;28;20013;-60
2023/08/26 10:37:50;;;;;;;7.47;3.30;;;;;;;;;;5062918;28;20049;-60
2023/08/26 10:40:17;;;;;;;2.40;1.30;;;;;;;;;;5048901;28;20472;-62
2023/08/26 10:43:01;;;;;;;12.35;3.08;;;;;;;;;;5043622;28;20037;-61
2023/08/26 10:45:26;;;;;;;20.52;3.22;;;;;;;;;;5046173;28;20112;-58
2023/08/26 10:47:52;;;;;;;8.80;3.67;;;;;;;;;;5049570;28;20092;-61
2023/08/26 10:50:27;;;;;;;3.63;1.83;;;;;;;;;;5049486;28;20474;-61
2023/08/26 10:52:56;;;;;;;4.20;1.95;;;;;;;;;;5067143;28;20086;-61
2023/08/26 10:55:22;;;;;;;6.28;2.15;;;;;;;;;;5068751;28;20025;-60
2023/08/26 10:58:06;;;;;;;4.83;1.60;;;;;;;;;;5067019;28;20437;-61
2023/08/26 11:00:31;;;;;;;2.25;1.85;;;;;;;;;;5066768;28;20537;-60
2023/08/26 11:02:56;;;;;;;3.10;1.37;;;;;;;;;;5045135;28;20013;-60
2023/08/26 11:05:21;;;;;;;3.03;1.80;;;;;;;;;;5054364;28;20107;-60
2023/08/26 11:07:47;;;;;;;3.97;2.22;;;;;;;;;;5067298;28;20526;-60
2023/08/26 11:10:29;;;;;;;5.63;1.85;;;;;;;;;;5060222;28;20460;-61
2023/08/26 11:12:54;;;;;;;4.22;2.38;;;;;;;;;;5068887;28;20119;-61
2023/08/26 11:15:19;;;;;;;5.05;1.60;;;;;;;;;;5070020;28;20019;-61
2023/08/26 11:17:45;;;;;;;1.93;1.40;;;;;;;;;;5068828;28;20043;-61
2023/08/26 11:20:10;;;;;;;8.50;3.20;;;;;;;;;;5069457;28;20525;-66
2023/08/26 11:22:35;;;;;;;5.50;1.90;;;;;;;;;;5067865;28;20140;-61
2023/08/26 11:25:00;;;;;;;1.10;1.00;;;;;;;;;;5070069;28;20387;-61
2023/08/26 11:27:25;;;;;;;4.83;2.20;;;;;;;;;;5068447;28;21239;-62
2023/08/26 11:29:51;;;;;;;2.50;1.55;;;;;;;;;;5069586;28;20020;-61
2023/08/26 11:32:16;;;;;;;1.70;1.57;;;;;;;;;;5068723;28;20483;-62
2023/08/26 11:34:41;;;;;;;3.70;1.83;;;;;;;;;;5069743;28;20013;-60
2023/08/26 11:37:06;;;;;;;4.10;1.90;;;;;;;;;;5067975;28;20458;-61
2023/08/26 11:39:35;;;;;;;11.90;2.45;;;;;;;;;;5065407;28;20483;-60
2023/08/26 11:42:00;;;;;;;4.70;1.33;;;;;;;;;;5048522;28;20090;-60
2023/08/26 11:44:26;;;;;;;1.52;1.13;;;;;;;;;;5047259;28;20429;-61
2023/08/26 11:46:53;;;;;;;2.42;1.45;;;;;;;;;;5060120;28;20044;-61
2023/08/26 11:49:19;;;;;;;3.47;1.63;;;;;;;;;;5069859;28;20107;-60
2023/08/26 11:51:44;;;;;;;2.73;1.73;;;;;;;;;;5063395;28;20175;-61
2023/08/26 11:54:21;;;;;;;3.30;1.60;;;;;;;;;;5061000;28;20478;-61
2023/08/26 11:56:47;;;;;;;3.38;1.42;;;;;;;;;;5068146;28;20500;-60
2023/08/26 11:59:18;;;;;;;5.67;2.40;;;;;;;;;;5056029;28;20038;-61
2023/08/26 12:01:43;;;;;;;3.58;1.20;;;;;;;;;;5058577;28;20120;-61
2023/08/26 12:04:11;;;;;;;2.63;1.40;;;;;;;;;;5069468;28;20027;-61
2023/08/26 12:06:36;;;;;;;8.40;4.07;;;;;;;;;;5065774;28;20045;-61
2023/08/26 12:09:04;;;;;;;1.83;1.63;;;;;;;;;;5069793;28;20023;-61
2023/08/26 12:11:32;;;;;;;4.70;2.20;;;;;;;;;;5066981;28;20037;-61
2023/08/26 12:13:57;;;;;;;2.95;1.52;;;;;;;;;;5072772;28;20020;-61
2023/08/26 12:16:22;;;;;;;1.50;1.23;;;;;;;;;;5069882;28;20510;-61
2023/08/26 12:18:52;;;;;;;2.23;1.07;;;;;;;;;;5073233;28;20063;-61
2023/08/26 12:21:17;;;;;;;5.57;1.90;;;;;;;;;;5070912;28;20056;-61
2023/08/26 12:23:42;;;;;;;1.67;1.10;;;;;;;;;;5073055;28;20055;-61
2023/08/26 12:26:13;;;;;;;9.57;3.40;;;;;;;;;;5071773;28;20474;-61
2023/08/26 12:28:39;;;;;;;4.53;1.83;;;;;;;;;;5065271;28;20029;-61
2023/08/26 12:31:05;;;;;;;1.98;1.65;;;;;;;;;;5051632;28;20437;-61
2023/08/26 12:33:30;;;;;;;2.63;1.40;;;;;;;;;;5053255;28;20066;-61
2023/08/26 12:35:55;;;;;;;9.13;2.20;;;;;;;;;;5062538;28;20067;-60
2023/08/26 12:38:20;;;;;;;3.30;1.50;;;;;;;;;;5051825;28;20578;-61
2023/08/26 12:40:47;;;;;;;1.13;1.10;;;;;;;;;;5050855;28;20478;-60
2023/08/26 12:43:13;;;;;;;5.03;2.60;;;;;;;;;;5052499;28;20056;-61
2023/08/26 12:45:38;;;;;;;1.30;0.90;;;;;;;;;;5058050;28;20055;-60
2023/08/26 12:48:03;;;;;;;4.57;1.20;;;;;;;;;;5072871;28;20540;-61
2023/08/26 12:50:29;;;;;;;1.50;1.00;;;;;;;;;;5070631;28;20020;-60
2023/08/26 12:52:54;;;;;;;1.50;1.40;;;;;;;;;;5073170;28;20766;-61
2023/08/26 12:55:19;;;;;;;2.50;1.40;;;;;;;;;;5068324;28;20017;-63
2023/08/26 12:57:45;;;;;;;6.10;1.23;;;;;;;;;;5050379;28;20455;-61
2023/08/26 13:00:10;;;;;;;1.77;1.02;;;;;;;;;;5051842;28;20037;-61
2023/08/26 13:02:39;;;;;;;4.13;1.50;;;;;;;;;;5049189;28;20053;-61
2023/08/26 13:05:08;;;;;;;2.05;1.35;;;;;;;;;;5058869;28;20075;-61
2023/08/26 13:07:33;;;;;;;2.70;1.02;;;;;;;;;;5050216;28;20109;-61
2023/08/26 13:09:58;;;;;;;3.33;1.33;;;;;;;;;;5050936;28;20040;-61
2023/08/26 13:12:24;;;;;;;1.30;1.20;;;;;;;;;;5055399;28;20044;-62
2023/08/26 13:14:49;;;;;;;1.47;1.10;;;;;;;;;;5071886;28;20016;-61
2023/08/26 13:17:14;;;;;;;5.63;1.27;;;;;;;;;;5070993;28;20041;-61
2023/08/26 13:19:39;;;;;;;2.80;1.83;;;;;;;;;;5071652;28;20017;-61
2023/08/26 13:22:04;;;;;;;3.60;1.47;;;;;;;;;;5070063;28;20041;-61
2023/08/26 13:24:29;;;;;;;1.17;0.93;;;;;;;;;;5071415;28;20328;-61
2023/08/26 13:26:55;;;;;;;1.60;0.97;;;;;;;;;;5070307;28;20037;-60
2023/08/26 13:29:20;;;;;;;1.42;1.17;;;;;;;;;;5071538;28;20058;-61
2023/08/26 13:31:45;;;;;;;2.28;1.60;;;;;;;;;;5050689;28;20033;-61
2023/08/26 13:34:11;;;;;;;2.08;1.20;;;;;;;;;;5054877;28;20056;-61
2023/08/26 13:36:37;;;;;;;5.33;1.50;;;;;;;;;;5050152;28;20121;-61
2023/08/26 13:39:03;;;;;;;1.52;1.05;;;;;;;;;;5051109;28;20467;-60
2023/08/26 13:41:28;;;;;;;1.20;1.10;;;;;;;;;;5049289;28;20048;-61
2023/08/26 13:43:53;;;;;;;1.77;1.23;;;;;;;;;;5062274;28;20074;-61
2023/08/26 13:46:19;;;;;;;3.67;1.10;;;;;;;;;;5056686;28;20032;-61
2023/08/26 13:48:44;;;;;;;2.67;1.10;;;;;;;;;;5071094;28;20029;-61
2023/08/26 13:51:09;;;;;;;3.07;1.50;;;;;;;;;;5067853;28;20036;-61
2023/08/26 13:53:34;;;;;;;1.48;0.95;;;;;;;;;;5071369;28;20430;-62
2023/08/26 13:55:59;;;;;;;3.10;1.13;;;;;;;;;;5069373;28;20119;-61
2023/08/26 13:58:25;;;;;;;0.80;0.80;;;;;;;;;;5071055;28;20517;-61
2023/08/26 14:00:50;;;;;;;2.80;1.10;;;;;;;;;;5069243;28;20113;-61
2023/08/26 14:03:15;;;;;;;1.53;1.43;;;;;;;;;;5070368;28;20450;-61
2023/08/26 14:05:49;;;;;;;4.17;1.03;;;;;;;;;;5069203;28;20918;-61
2023/08/26 14:08:14;;;;;;;1.08;0.98;;;;;;;;;;5056148;28;20456;-61
2023/08/26 14:10:40;;;;;;;4.20;1.20;;;;;;;;;;5050891;28;20017;-62
2023/08/26 14:13:05;;;;;;;1.77;1.20;;;;;;;;;;5070059;28;20471;-61
2023/08/26 14:15:30;;;;;;;1.83;1.17;;;;;;;;;;5068929;28;20029;-60
2023/08/26 14:17:56;;;;;;;1.77;1.42;;;;;;;;;;5069452;28;21046;-61
2023/08/26 14:20:21;;;;;;;1.17;1.05;;;;;;;;;;5070629;28;20468;-61
2023/08/26 14:22:46;;;;;;;0.82;0.82;;;;;;;;;;5067789;28;20029;-61